Time;durP1;ratioP1;P1;durP2;ratioP2;P2;SDS_P1;SDS_P2;PMS_P1;PMS_P2;Temp;Humidity;BMP_temperature;BMP_pressure;BME280_temperature;BME280_humidity;BME280_pressure;Samples;Min_cycle;Max_cycle;Signal;HPM_P1;HPM_P2
2023/03/02 00:04:58;;;;;;;3.75;1.77;;;;;;;-6.05;82.18;100870.28;10601229;28;20032;-79
2023/03/02 00:10:00;;;;;;;3.08;1.70;;;;;;;-6.00;82.96;100886.63;10572213;28;20508;-79
2023/03/02 00:15:02;;;;;;;3.03;1.88;;;;;;;-6.09;82.53;100882.28;10544314;28;20043;-78
2023/03/02 00:20:11;;;;;;;3.97;1.90;;;;;;;-6.10;82.65;100888.63;10605530;28;20035;-79
2023/03/02 00:25:14;;;;;;;2.97;1.52;;;;;;;-6.12;82.65;100880.78;10585252;28;20043;-78
2023/03/02 00:30:16;;;;;;;3.10;1.48;;;;;;;-6.28;82.88;100870.09;10601220;28;20047;-77
2023/03/02 00:35:19;;;;;;;3.03;1.70;;;;;;;-6.31;82.74;100853.59;10586555;28;20055;-78
2023/03/02 00:40:21;;;;;;;4.93;2.78;;;;;;;-6.31;82.66;100856.25;10605136;28;20040;-77
2023/03/02 00:45:23;;;;;;;8.68;3.13;;;;;;;-6.18;83.22;100843.25;10565395;27;20043;-78
2023/03/02 00:50:25;;;;;;;8.98;3.22;;;;;;;-6.08;82.66;100825.19;10587724;28;20500;-78
2023/03/02 00:55:27;;;;;;;14.85;5.07;;;;;;;-6.13;82.29;100816.84;10592729;28;20035;-78
2023/03/02 01:00:30;;;;;;;12.57;4.38;;;;;;;-6.02;81.79;100799.66;10597164;28;20044;-78
2023/03/02 01:05:37;;;;;;;11.77;4.27;;;;;;;-6.13;81.36;100792.81;10591515;28;20389;-79
2023/03/02 01:10:40;;;;;;;9.23;3.88;;;;;;;-6.24;81.51;100785.16;10610279;28;20062;-79
2023/03/02 01:15:43;;;;;;;10.70;4.03;;;;;;;-6.34;81.68;100773.81;10585269;28;20044;-77
2023/03/02 01:20:45;;;;;;;8.15;3.80;;;;;;;-6.18;82.24;100765.78;10606666;28;20528;-78
2023/03/02 01:25:48;;;;;;;8.85;3.83;;;;;;;-6.06;81.96;100761.78;10603993;28;20058;-78
2023/03/02 01:30:50;;;;;;;7.55;3.08;;;;;;;-5.94;81.92;100768.41;10591408;28;20043;-78
2023/03/02 01:35:53;;;;;;;4.68;2.55;;;;;;;-5.88;81.45;100753.50;10604430;28;20544;-78
2023/03/02 01:40:55;;;;;;;3.85;2.42;;;;;;;-5.99;81.29;100738.69;10599554;28;20047;-78
2023/03/02 01:46:03;;;;;;;3.88;2.00;;;;;;;-5.98;81.61;100731.53;10608945;28;20058;-78
2023/03/02 01:51:15;;;;;;;4.28;1.80;;;;;;;-5.68;80.90;100722.69;10580858;28;20047;-78
2023/03/02 01:56:24;;;;;;;3.30;1.98;;;;;;;-5.61;80.63;100706.78;10595932;28;20047;-77
2023/03/02 02:01:31;;;;;;;4.40;2.10;;;;;;;-5.51;80.02;100681.50;10565576;28;20050;-79
2023/03/02 02:06:43;;;;;;;5.13;2.30;;;;;;;-5.34;79.93;100682.25;10614002;28;20059;-78
2023/03/02 02:11:46;;;;;;;3.63;1.77;;;;;;;-5.34;80.87;100670.72;10587218;28;20063;-77
2023/03/02 02:16:48;;;;;;;3.03;1.38;;;;;;;-5.28;81.35;100676.19;10585670;28;20492;-79
2023/03/02 02:21:50;;;;;;;3.55;1.65;;;;;;;-5.16;82.41;100663.25;10583440;27;20070;-78
2023/03/02 02:26:55;;;;;;;2.90;1.77;;;;;;;-5.19;82.12;100658.25;10575822;28;20425;-79
2023/03/02 02:32:01;;;;;;;3.90;2.20;;;;;;;-5.18;82.84;100658.06;10597782;27;20128;-79
2023/03/02 02:37:27;;;;;;;3.75;2.10;;;;;;;-5.20;83.40;100645.91;10560357;28;20516;-77
2023/03/02 02:42:33;;;;;;;8.50;2.53;;;;;;;-4.93;83.05;100629.25;10571112;28;20518;-79
2023/03/02 02:47:35;;;;;;;3.95;1.73;;;;;;;-5.02;82.66;100627.69;10605826;28;20044;-78
2023/03/02 02:52:39;;;;;;;4.15;2.03;;;;;;;-4.69;82.97;100595.25;10574016;28;20412;-79
2023/03/02 02:57:42;;;;;;;4.50;1.85;;;;;;;-4.92;82.65;100603.34;10588183;28;20043;-77
2023/03/02 03:02:46;;;;;;;5.28;2.33;;;;;;;-4.94;83.41;100575.94;10594923;28;20051;-78
2023/03/02 03:07:49;;;;;;;6.47;2.58;;;;;;;-4.87;84.10;100555.44;10567324;28;20059;-79
2023/03/02 03:12:52;;;;;;;3.83;2.08;;;;;;;-4.86;83.84;100544.59;10564998;28;20040;-77
2023/03/02 03:17:57;;;;;;;2.92;1.52;;;;;;;-4.80;84.08;100513.56;10511900;28;20425;-77
2023/03/02 03:23:01;;;;;;;3.60;1.10;;;;;;;-4.71;84.01;100491.03;10528136;28;20047;-77
2023/03/02 03:28:06;;;;;;;3.25;1.05;;;;;;;-4.74;83.47;100461.97;10527965;28;20524;-77
2023/03/02 03:33:09;;;;;;;4.30;1.35;;;;;;;-4.53;83.24;100465.72;10549381;28;20040;-77
2023/03/02 03:38:12;;;;;;;2.38;1.30;;;;;;;-4.47;82.17;100447.06;10550218;28;20071;-80
2023/03/02 03:43:15;;;;;;;2.22;1.02;;;;;;;-4.41;81.40;100426.72;10549717;28;20495;-78
2023/03/02 03:48:23;;;;;;;3.78;1.05;;;;;;;-4.41;80.35;100413.34;10550420;28;20421;-79
2023/03/02 03:53:27;;;;;;;2.03;1.13;;;;;;;-4.44;80.35;100400.34;10545076;28;20226;-79
2023/03/02 03:58:30;;;;;;;1.42;0.85;;;;;;;-4.34;79.60;100384.75;10548679;28;20051;-78
2023/03/02 04:03:33;;;;;;;1.33;0.80;;;;;;;-4.22;78.77;100372.53;10531321;28;20418;-77
2023/03/02 04:08:35;;;;;;;1.92;0.80;;;;;;;-4.09;77.64;100371.84;10546255;28;20048;-79
2023/03/02 04:13:37;;;;;;;1.88;0.80;;;;;;;-4.07;77.18;100367.94;10577062;28;20047;-78
2023/03/02 04:18:42;;;;;;;1.60;0.90;;;;;;;-4.15;77.57;100356.53;10599305;28;20495;-79
2023/03/02 04:23:44;;;;;;;0.85;0.60;;;;;;;-3.97;78.70;100354.22;10588838;28;20044;-78
2023/03/02 04:28:49;;;;;;;3.08;0.88;;;;;;;-4.00;79.34;100331.28;10590354;28;20047;-78
2023/03/02 04:33:53;;;;;;;1.27;0.60;;;;;;;-4.00;80.28;100322.44;10584408;28;20043;-77
2023/03/02 04:38:55;;;;;;;1.35;0.70;;;;;;;-3.90;80.44;100301.50;10591337;28;20416;-77
2023/03/02 04:43:57;;;;;;;1.10;0.70;;;;;;;-3.78;80.46;100283.84;10559578;28;20043;-78
2023/03/02 04:49:00;;;;;;;0.77;0.75;;;;;;;-3.86;80.90;100269.75;10578944;28;20047;-78
2023/03/02 04:54:06;;;;;;;1.50;0.90;;;;;;;-3.71;81.27;100249.03;10605761;28;20051;-78
2023/03/02 04:59:08;;;;;;;1.45;0.88;;;;;;;-3.67;80.87;100226.97;10592214;28;20491;-78
2023/03/02 05:04:11;;;;;;;1.90;0.90;;;;;;;-3.58;80.78;100214.25;10606518;28;20043;-78
2023/03/02 05:09:14;;;;;;;0.95;0.60;;;;;;;-3.55;79.83;100208.47;10581757;28;20055;-77
2023/03/02 05:14:16;;;;;;;2.45;1.00;;;;;;;-3.47;80.18;100192.22;10604116;28;20044;-77
2023/03/02 05:19:18;;;;;;;2.00;0.90;;;;;;;-3.46;80.17;100177.78;10604614;28;20040;-78
2023/03/02 05:24:25;;;;;;;2.42;1.10;;;;;;;-3.33;80.16;100174.28;10599690;28;20047;-80
2023/03/02 05:29:47;;;;;;;1.55;0.88;;;;;;;-3.19;80.40;100161.75;10611794;28;20043;-79
2023/03/02 05:35:10;;;;;;;1.05;0.95;;;;;;;-2.96;80.72;100164.88;10591618;28;20027;-80
2023/03/02 05:40:22;;;;;;;2.13;0.75;;;;;;;-2.93;80.66;100164.47;10590033;28;20044;-78
2023/03/02 05:45:30;;;;;;;0.88;0.60;;;;;;;-2.89;81.61;100136.19;10600972;28;20035;-81
2023/03/02 05:50:32;;;;;;;1.52;1.00;;;;;;;-2.86;82.12;100127.72;10610389;28;20070;-78
2023/03/02 05:55:35;;;;;;;1.50;0.90;;;;;;;-2.75;82.73;100111.00;10594775;28;20036;-78
2023/03/02 06:00:38;;;;;;;1.88;1.08;;;;;;;-2.62;83.11;100109.31;10606121;28;20043;-79
2023/03/02 06:05:40;;;;;;;3.13;1.48;;;;;;;-2.49;83.72;100114.69;10594182;28;20054;-79
2023/03/02 06:10:42;;;;;;;2.40;1.20;;;;;;;-2.46;84.85;100112.38;10561557;28;20062;-77
2023/03/02 06:15:44;;;;;;;2.72;1.38;;;;;;;-2.37;86.17;100104.13;10594652;28;20039;-79
2023/03/02 06:20:48;;;;;;;1.83;1.30;;;;;;;-2.19;87.33;100097.03;10607569;28;20484;-78
2023/03/02 06:25:50;;;;;;;1.90;1.33;;;;;;;-2.02;88.03;100099.28;10610259;28;20052;-78
2023/03/02 06:30:52;;;;;;;2.58;1.33;;;;;;;-1.85;88.98;100090.50;10607186;27;20043;-78
2023/03/02 06:35:55;;;;;;;1.40;1.10;;;;;;;-1.80;89.63;100081.78;10602094;28;20047;-78
2023/03/02 06:40:58;;;;;;;2.42;1.50;;;;;;;-1.65;90.08;100068.91;10597900;28;20063;-77
2023/03/02 06:46:00;;;;;;;1.60;1.40;;;;;;;-1.52;90.39;100058.06;10597769;28;20042;-78
2023/03/02 06:51:03;;;;;;;1.63;0.95;;;;;;;-1.34;90.86;100051.13;10574157;28;20043;-77
2023/03/02 06:56:05;;;;;;;1.98;1.58;;;;;;;-1.22;91.39;100046.66;10588371;28;20067;-78
2023/03/02 07:01:07;;;;;;;2.70;1.40;;;;;;;-1.16;91.74;100036.91;10609704;28;20420;-79
2023/03/02 07:06:12;;;;;;;3.00;1.55;;;;;;;-1.07;92.64;100035.56;10603225;27;20040;-77
2023/03/02 07:11:15;;;;;;;2.88;1.60;;;;;;;-0.97;92.85;100020.56;10603024;28;20049;-79
2023/03/02 07:16:17;;;;;;;2.17;1.50;;;;;;;-0.77;92.76;100014.19;10578621;28;20040;-78
2023/03/02 07:21:19;;;;;;;2.65;1.27;;;;;;;-0.62;92.56;100011.94;10607887;28;20415;-77
2023/03/02 07:26:21;;;;;;;3.05;1.25;;;;;;;0.12;91.42;99996.53;10605791;28;20036;-79
2023/03/02 07:31:24;;;;;;;4.72;1.40;;;;;;;0.71;88.96;99989.44;10590963;28;20039;-79
2023/03/02 07:36:27;;;;;;;2.13;1.13;;;;;;;1.25;85.94;100000.97;10586007;28;20039;-79
2023/03/02 07:41:29;;;;;;;1.20;1.10;;;;;;;2.47;81.40;99998.03;10570552;28;20040;-80
2023/03/02 07:46:31;;;;;;;2.28;1.02;;;;;;;3.31;76.31;99996.16;10602587;28;20043;-79
2023/03/02 07:51:33;;;;;;;1.40;1.00;;;;;;;3.96;72.83;99975.53;10609485;28;20047;-79
2023/03/02 07:56:35;;;;;;;3.78;1.10;;;;;;;4.53;69.94;99967.75;10603122;28;20043;-80
2023/03/02 08:01:38;;;;;;;3.85;1.42;;;;;;;4.79;68.11;99955.19;10602678;28;20133;-80
2023/03/02 08:06:40;;;;;;;3.20;1.30;;;;;;;5.43;65.79;99947.72;10592730;28;20060;-81
2023/03/02 08:11:43;;;;;;;2.28;1.30;;;;;;;5.73;64.07;99952.50;10545185;28;20036;-79
2023/03/02 08:16:45;;;;;;;2.17;1.60;;;;;;;6.04;62.71;99945.25;10543870;28;20039;-79
2023/03/02 08:21:48;;;;;;;2.03;1.27;;;;;;;5.84;62.06;99947.91;10505357;28;20040;-80
2023/03/02 08:26:50;;;;;;;1.50;1.40;;;;;;;6.60;61.09;99945.38;10526421;28;20054;-81
2023/03/02 08:31:52;;;;;;;2.08;1.23;;;;;;;6.92;59.02;99930.63;10557619;28;20538;-80
2023/03/02 08:36:54;;;;;;;1.38;1.02;;;;;;;6.82;58.88;99917.84;10561623;28;20040;-80
2023/03/02 08:41:57;;;;;;;1.90;0.80;;;;;;;7.25;57.33;99910.09;10547178;28;20051;-81
2023/03/02 08:46:59;;;;;;;2.00;0.90;;;;;;;7.33;56.45;99903.28;10534193;28;20055;-79
2023/03/02 08:52:01;;;;;;;2.45;0.80;;;;;;;6.92;56.30;99901.44;10534123;28;20052;-80
2023/03/02 08:57:03;;;;;;;1.23;0.85;;;;;;;6.31;57.26;99906.91;10552106;28;20040;-81
2023/03/02 09:02:06;;;;;;;1.90;0.88;;;;;;;5.62;59.36;99904.53;10558688;28;20044;-78
2023/03/02 09:07:09;;;;;;;1.50;0.70;;;;;;;4.20;62.38;99899.00;10583230;28;20052;-82
2023/03/02 09:12:16;;;;;;;3.08;0.90;;;;;;;3.36;65.55;99895.88;10579189;28;20073;-85
2023/03/02 09:17:18;;;;;;;2.63;0.85;;;;;;;2.98;66.78;99899.44;10553831;28;20051;-83
2023/03/02 09:22:21;;;;;;;4.10;1.02;;;;;;;2.63;68.42;99899.75;10590239;28;20039;-80
2023/03/02 09:27:27;;;;;;;3.83;0.95;;;;;;;2.57;69.43;99901.53;10601718;28;20040;-78
2023/03/02 09:32:29;;;;;;;1.58;0.75;;;;;;;2.37;70.22;99899.31;10615031;27;20058;-81
2023/03/02 09:37:34;;;;;;;1.98;1.00;;;;;;;2.43;70.00;99889.41;10580791;27;20035;-78
2023/03/02 09:43:22;;;;;;;1.75;0.50;;;;;;;2.48;70.75;99886.78;10603884;28;20045;-78
2023/03/02 09:48:34;;;;;;;0.63;0.60;;;;;;;2.37;70.28;99902.00;10626320;28;20047;-78
2023/03/02 09:53:52;;;;;;;1.88;0.50;;;;;;;2.49;70.70;99887.59;10622779;28;20043;-81
2023/03/02 09:59:00;;;;;;;2.65;0.82;;;;;;;2.66;70.32;99878.38;10577143;27;20477;-80
2023/03/02 10:04:46;;;;;;;1.83;0.70;;;;;;;2.97;68.49;99862.56;10616411;27;20035;-80
2023/03/02 10:09:48;;;;;;;5.82;0.95;;;;;;;3.10;67.55;99861.38;10540608;27;20040;-79
2023/03/02 10:14:58;;;;;;;2.50;0.70;;;;;;;3.35;66.59;99850.88;10628504;28;20053;-78
2023/03/02 10:20:04;;;;;;;1.17;0.77;;;;;;;3.39;66.80;99834.91;10573805;28;20050;-79
2023/03/02 10:25:41;;;;;;;1.38;0.98;;;;;;;3.29;66.40;99836.41;10570068;28;20080;-79
2023/03/02 10:30:44;;;;;;;2.20;0.63;;;;;;;3.20;67.05;99828.97;10611977;28;20396;-80
2023/03/02 10:35:51;;;;;;;2.17;0.80;;;;;;;3.05;67.20;99815.25;10600375;28;20046;-79
2023/03/02 10:41:23;;;;;;;0.80;0.50;;;;;;;3.02;67.02;99816.56;10614643;28;20048;-80
2023/03/02 10:46:26;;;;;;;3.95;1.15;;;;;;;2.96;66.94;99812.16;10602639;28;20048;-80
2023/03/02 10:51:30;;;;;;;3.25;0.70;;;;;;;3.04;66.59;99806.28;10595097;28;20047;-79
2023/03/02 10:56:33;;;;;;;2.78;0.98;;;;;;;3.16;66.15;99811.59;10618343;27;20050;-80
2023/03/02 11:01:35;;;;;;;2.40;0.70;;;;;;;3.25;66.32;99791.91;10615978;27;20044;-81
2023/03/02 11:06:38;;;;;;;7.47;0.98;;;;;;;3.29;66.10;99794.91;10584625;28;20050;-78
2023/03/02 11:11:53;;;;;;;3.70;0.68;;;;;;;3.45;65.81;99798.63;10613866;28;20522;-80
2023/03/02 11:16:59;;;;;;;3.67;0.60;;;;;;;3.46;65.28;99794.81;10594356;27;20512;-80
2023/03/02 11:22:13;;;;;;;2.15;0.68;;;;;;;3.32;66.51;99787.13;10585651;28;20047;-80
2023/03/02 11:27:20;;;;;;;1.90;0.63;;;;;;;3.06;67.84;99793.31;10612781;28;20040;-79
2023/03/02 11:32:37;;;;;;;2.17;0.60;;;;;;;2.83;69.12;99780.00;10610731;28;20044;-79
2023/03/02 11:37:47;;;;;;;2.90;1.10;;;;;;;2.71;69.81;99766.56;10574832;28;20616;-79
2023/03/02 11:42:49;;;;;;;1.98;0.80;;;;;;;2.65;69.35;99773.81;10570730;28;20326;-80
2023/03/02 11:47:57;;;;;;;1.38;1.00;;;;;;;2.58;70.27;99772.34;10570942;28;20052;-80
2023/03/02 11:53:06;;;;;;;4.28;1.30;;;;;;;2.39;71.00;99767.22;10590294;28;20044;-79
2023/03/02 11:58:15;;;;;;;1.73;0.90;;;;;;;2.27;71.51;99766.53;10578430;28;20058;-78
2023/03/02 12:03:43;;;;;;;2.72;0.90;;;;;;;2.13;71.73;99758.97;10579500;28;20039;-80
2023/03/02 12:08:48;;;;;;;3.47;0.80;;;;;;;1.93;72.52;99763.00;10582977;28;20048;-79
2023/03/02 12:13:53;;;;;;;1.83;0.90;;;;;;;1.80;73.72;99757.91;10587748;28;20048;-78
2023/03/02 12:19:10;;;;;;;1.23;0.70;;;;;;;1.66;74.13;99749.31;10612966;28;20050;-78
2023/03/02 12:24:26;;;;;;;1.77;0.75;;;;;;;1.40;75.44;99756.16;10576653;28;20039;-79
2023/03/02 12:29:48;;;;;;;2.30;0.68;;;;;;;1.44;75.27;99748.38;10551488;28;20625;-80
2023/03/02 12:35:17;;;;;;;2.55;0.88;;;;;;;1.34;76.52;99740.88;10535344;28;20520;-80
2023/03/02 12:40:24;;;;;;;1.13;0.60;;;;;;;1.29;76.75;99738.09;10573109;28;20505;-82
2023/03/02 12:45:48;;;;;;;3.88;0.75;;;;;;;1.25;76.54;99734.25;10594514;28;20058;-79
2023/03/02 12:50:53;;;;;;;1.70;0.70;;;;;;;1.18;76.55;99720.88;10638132;27;20051;-80
2023/03/02 12:55:55;;;;;;;2.25;0.77;;;;;;;1.15;77.29;99736.75;10626727;27;20074;-79
2023/03/02 13:00:59;;;;;;;1.35;0.52;;;;;;;1.11;77.20;99741.81;10632536;27;20052;-80
2023/03/02 13:06:13;;;;;;;2.13;0.60;;;;;;;1.05;77.55;99742.81;10618414;28;20036;-79
2023/03/02 13:11:23;;;;;;;3.28;0.88;;;;;;;0.97;77.59;99739.66;10619301;28;20528;-80
2023/03/02 13:16:28;;;;;;;2.63;0.80;;;;;;;0.96;77.59;99730.72;10592737;27;20046;-80
2023/03/02 13:21:33;;;;;;;2.75;0.90;;;;;;;1.02;77.53;99726.22;10613885;28;20052;-80
2023/03/02 13:26:38;;;;;;;2.13;0.80;;;;;;;0.98;78.07;99725.06;10588298;28;20036;-79
2023/03/02 13:31:41;;;;;;;3.85;0.80;;;;;;;0.99;77.34;99721.31;10563436;28;20046;-82
2023/03/02 13:36:43;;;;;;;3.75;1.13;;;;;;;1.20;77.16;99723.31;10569447;28;20052;-79
2023/03/02 13:42:00;;;;;;;4.00;1.00;;;;;;;1.22;76.98;99718.53;10621868;28;20047;-79
2023/03/02 13:47:02;;;;;;;3.88;0.73;;;;;;;1.26;76.62;99713.47;10642744;28;20131;-79
2023/03/02 13:52:07;;;;;;;1.92;0.80;;;;;;;1.24;76.94;99710.19;10597328;28;20089;-78
2023/03/02 13:57:14;;;;;;;5.05;1.00;;;;;;;1.20;76.55;99697.13;10599994;28;20047;-77
2023/03/02 14:02:24;;;;;;;2.38;0.73;;;;;;;1.06;76.34;99689.59;10602212;27;20040;-78
2023/03/02 14:07:29;;;;;;;1.80;0.65;;;;;;;0.95;77.69;99682.34;10598988;27;20048;-77
2023/03/02 14:12:32;;;;;;;1.25;0.57;;;;;;;0.93;78.01;99669.09;10559154;28;20044;-86
2023/03/02 14:17:34;;;;;;;2.47;0.90;;;;;;;0.81;77.89;99666.44;10529176;28;20044;-79
2023/03/02 14:22:36;;;;;;;3.53;1.08;;;;;;;0.68;78.74;99672.09;10551095;28;20046;-79
2023/03/02 14:27:42;;;;;;;5.47;1.00;;;;;;;0.56;78.43;99664.06;10572923;28;20036;-79
2023/03/02 14:32:45;;;;;;;2.80;0.80;;;;;;;0.52;78.66;99654.81;10584324;28;20032;-76
2023/03/02 14:37:48;;;;;;;2.65;1.10;;;;;;;0.51;78.89;99649.63;10553623;28;20051;-78
2023/03/02 14:42:50;;;;;;;4.32;1.17;;;;;;;0.38;79.69;99639.94;10565135;28;20038;-79
2023/03/02 14:47:54;;;;;;;2.65;1.15;;;;;;;0.34;80.14;99637.94;10546249;28;20042;-80
2023/03/02 14:52:57;;;;;;;4.70;1.08;;;;;;;0.35;80.46;99634.19;10565104;28;20036;-77
2023/03/02 14:58:03;;;;;;;4.97;0.98;;;;;;;0.39;80.54;99624.59;10581154;28;20040;-77
2023/03/02 15:03:05;;;;;;;2.63;0.70;;;;;;;0.37;81.12;99608.63;10542364;28;20047;-80
2023/03/02 15:08:13;;;;;;;3.50;1.23;;;;;;;0.41;80.79;99603.56;10598302;28;20484;-80
2023/03/02 15:13:15;;;;;;;5.38;1.90;;;;;;;0.37;80.61;99602.41;10595928;27;20092;-80
2023/03/02 15:18:18;;;;;;;5.57;0.88;;;;;;;0.40;81.18;99600.03;10598977;27;20044;-80
2023/03/02 15:23:21;;;;;;;6.07;1.00;;;;;;;0.37;81.11;99595.13;10614949;28;20065;-79
2023/03/02 15:28:24;;;;;;;2.95;1.10;;;;;;;0.40;81.52;99589.25;10554983;27;21730;-79
2023/03/02 15:33:26;;;;;;;3.50;1.02;;;;;;;0.34;82.00;99579.41;10619390;28;20053;-80
2023/03/02 15:38:28;;;;;;;5.78;1.50;;;;;;;0.28;81.87;99569.59;10618604;27;20040;-80
2023/03/02 15:43:30;;;;;;;1.33;0.90;;;;;;;0.25;82.22;99565.50;10618077;28;20111;-77
2023/03/02 15:48:33;;;;;;;7.13;1.00;;;;;;;0.26;82.61;99545.53;10599957;28;20518;-78
2023/03/02 15:53:36;;;;;;;2.72;1.00;;;;;;;0.30;82.40;99546.69;10593772;28;20045;-80
2023/03/02 15:58:39;;;;;;;6.10;1.40;;;;;;;0.41;81.94;99517.22;10596667;28;20492;-79
2023/03/02 16:03:43;;;;;;;2.90;0.85;;;;;;;0.55;81.81;99510.47;10597376;28;20500;-80
2023/03/02 16:08:45;;;;;;;2.45;0.77;;;;;;;0.67;81.25;99499.56;10576031;28;20048;-80
2023/03/02 16:13:48;;;;;;;4.15;1.10;;;;;;;0.66;81.29;99517.66;10570757;28;20047;-79
2023/03/02 16:18:51;;;;;;;1.98;0.90;;;;;;;0.65;81.35;99526.00;10584764;28;20039;-77
2023/03/02 16:23:55;;;;;;;2.85;0.88;;;;;;;0.60;82.00;99529.44;10582691;28;20047;-78
2023/03/02 16:29:01;;;;;;;3.72;1.10;;;;;;;0.52;83.12;99522.56;10584108;28;20032;-81
2023/03/02 16:34:07;;;;;;;4.82;1.30;;;;;;;0.49;84.74;99500.59;10574456;28;20039;-85
2023/03/02 16:39:10;;;;;;;6.72;1.00;;;;;;;0.48;86.16;99494.41;10580028;28;20038;-79
2023/03/02 16:44:13;;;;;;;4.03;1.30;;;;;;;0.53;87.88;99496.38;10620340;28;20045;-79
2023/03/02 16:49:15;;;;;;;3.92;0.60;;;;;;;0.69;89.10;99495.56;10603834;28;20051;-80
2023/03/02 16:54:18;;;;;;;10.25;0.95;;;;;;;0.73;88.75;99493.22;10567913;28;20042;-80
2023/03/02 16:59:20;;;;;;;4.10;0.98;;;;;;;0.55;88.24;99483.47;10540964;28;20039;-78
2023/03/02 17:04:23;;;;;;;5.72;0.85;;;;;;;0.59;87.12;99479.22;10557693;28;20073;-80
2023/03/02 17:09:26;;;;;;;2.33;0.85;;;;;;;0.55;86.61;99468.09;10589552;28;20046;-79
2023/03/02 17:14:29;;;;;;;5.13;1.08;;;;;;;0.56;85.63;99471.59;10603025;28;20503;-79
2023/03/02 17:19:31;;;;;;;3.25;0.90;;;;;;;0.52;85.31;99467.72;10604007;28;20047;-78
2023/03/02 17:24:33;;;;;;;3.75;1.05;;;;;;;0.56;85.67;99472.41;10621781;27;20055;-80
2023/03/02 17:29:35;;;;;;;7.72;0.93;;;;;;;0.68;85.02;99472.31;10568077;28;20039;-79
2023/03/02 17:34:37;;;;;;;5.22;1.17;;;;;;;0.65;84.86;99467.41;10625571;28;20043;-78
2023/03/02 17:39:40;;;;;;;5.88;1.20;;;;;;;0.59;84.73;99458.44;10599371;28;20040;-79
2023/03/02 17:44:43;;;;;;;6.90;0.90;;;;;;;0.54;84.84;99441.34;10628020;27;20036;-78
2023/03/02 17:49:46;;;;;;;7.05;1.75;;;;;;;0.56;84.85;99437.34;10590261;28;20050;-80
2023/03/02 17:54:50;;;;;;;3.80;0.98;;;;;;;0.50;84.65;99437.47;10618850;28;20031;-78
2023/03/02 17:59:57;;;;;;;6.43;1.33;;;;;;;0.44;84.50;99438.47;10616447;27;20042;-80
2023/03/02 18:04:59;;;;;;;6.32;1.10;;;;;;;0.52;84.41;99433.50;10611818;28;20050;-81
2023/03/02 18:10:02;;;;;;;4.30;1.13;;;;;;;0.50;84.47;99434.78;10606021;28;20052;-85
2023/03/02 18:15:08;;;;;;;2.97;1.17;;;;;;;0.47;84.12;99435.28;10630023;27;20051;-80
2023/03/02 18:20:11;;;;;;;5.50;1.23;;;;;;;0.41;84.14;99433.56;10569167;27;20049;-78
2023/03/02 18:25:13;;;;;;;5.00;0.98;;;;;;;0.54;84.08;99425.16;10619757;28;20042;-79
2023/03/02 18:30:16;;;;;;;3.50;1.17;;;;;;;0.64;83.67;99413.69;10646257;27;20043;-79
2023/03/02 18:35:18;;;;;;;3.83;1.10;;;;;;;0.57;83.48;99427.34;10615364;28;20492;-79
2023/03/02 18:40:21;;;;;;;5.20;1.38;;;;;;;0.50;83.28;99419.41;10603621;28;20049;-79
2023/03/02 18:45:29;;;;;;;4.63;1.58;;;;;;;0.44;82.71;99417.69;10617235;27;20103;-80
2023/03/02 18:50:31;;;;;;;6.53;1.50;;;;;;;0.41;83.17;99411.97;10556963;28;20036;-78
2023/03/02 18:55:35;;;;;;;4.18;1.30;;;;;;;0.34;83.44;99411.28;10626352;28;20047;-78
2023/03/02 19:00:38;;;;;;;4.68;1.00;;;;;;;0.31;83.13;99409.91;10590836;28;20405;-80
2023/03/02 19:05:41;;;;;;;4.53;1.35;;;;;;;0.28;83.69;99405.81;10616227;28;20039;-79
2023/03/02 19:10:43;;;;;;;3.05;1.00;;;;;;;0.35;83.67;99407.53;10586807;28;20116;-78
2023/03/02 19:15:49;;;;;;;4.57;0.90;;;;;;;0.38;83.62;99397.09;10591737;28;20061;-79
2023/03/02 19:20:53;;;;;;;2.97;1.10;;;;;;;0.36;83.62;99396.53;10599945;27;20039;-79
2023/03/02 19:25:57;;;;;;;4.57;1.20;;;;;;;0.39;83.26;99389.81;10616699;28;20040;-79
2023/03/02 19:31:05;;;;;;;2.45;1.10;;;;;;;0.41;83.41;99395.78;10623905;28;20047;-79
2023/03/02 19:36:10;;;;;;;6.53;1.15;;;;;;;0.37;83.37;99390.06;10622907;28;20048;-79
2023/03/02 19:41:14;;;;;;;4.20;1.00;;;;;;;0.39;83.60;99393.31;10588097;28;20045;-80
2023/03/02 19:46:17;;;;;;;3.60;1.05;;;;;;;0.28;84.87;99400.44;10609676;27;20422;-80
2023/03/02 19:51:19;;;;;;;3.10;1.23;;;;;;;0.14;86.18;99395.59;10613048;28;20042;-79
2023/03/02 19:56:31;;;;;;;3.55;0.90;;;;;;;0.03;87.39;99388.41;10594083;28;20043;-80
2023/03/02 20:01:33;;;;;;;3.78;1.00;;;;;;;0.00;88.80;99389.72;10609742;28;20514;-80
2023/03/02 20:06:36;;;;;;;5.30;1.20;;;;;;;-0.05;90.06;99378.81;10592586;28;20402;-80
2023/03/02 20:11:38;;;;;;;4.25;1.15;;;;;;;0.05;90.77;99379.00;10598678;28;20035;-79
2023/03/02 20:16:41;;;;;;;2.63;1.23;;;;;;;0.47;91.79;99379.41;10597172;28;20036;-78
2023/03/02 20:21:43;;;;;;;4.13;1.63;;;;;;;0.70;90.95;99378.44;10620836;28;20040;-79
2023/03/02 20:26:46;;;;;;;3.75;1.48;;;;;;;0.73;91.56;99375.22;10595043;28;20042;-80
2023/03/02 20:31:48;;;;;;;5.03;1.40;;;;;;;0.80;90.77;99369.66;10625711;28;20046;-81
2023/03/02 20:36:51;;;;;;;2.83;1.38;;;;;;;0.37;89.96;99373.88;10627309;28;20039;-80
2023/03/02 20:41:53;;;;;;;5.50;2.03;;;;;;;0.22;90.52;99377.13;10601413;28;20124;-79
2023/03/02 20:46:58;;;;;;;3.90;1.52;;;;;;;0.08;90.89;99375.81;10616294;28;20046;-80
2023/03/02 20:52:01;;;;;;;2.80;1.30;;;;;;;-0.01;92.17;99378.06;10615661;28;20046;-81
2023/03/02 20:57:04;;;;;;;6.03;1.75;;;;;;;-0.15;92.44;99378.66;10591266;27;20544;-80
2023/03/02 21:02:07;;;;;;;3.15;1.33;;;;;;;-0.23;93.07;99374.44;10619342;27;20040;-82
2023/03/02 21:07:09;;;;;;;2.92;1.10;;;;;;;-0.08;93.90;99380.13;10603605;27;20132;-80
2023/03/02 21:12:12;;;;;;;4.07;1.55;;;;;;;-0.12;94.37;99378.16;10613783;28;20043;-79
2023/03/02 21:17:14;;;;;;;2.33;1.10;;;;;;;-0.09;94.42;99385.75;10610590;28;20047;-80
2023/03/02 21:22:19;;;;;;;3.53;1.13;;;;;;;0.00;94.52;99387.00;10616145;27;20048;-79
2023/03/02 21:27:21;;;;;;;4.28;1.10;;;;;;;0.01;94.19;99385.94;10622861;28;20045;-79
2023/03/02 21:32:27;;;;;;;4.60;1.50;;;;;;;0.02;94.03;99387.59;10607993;27;20061;-80
2023/03/02 21:37:30;;;;;;;5.72;1.67;;;;;;;0.05;93.65;99394.38;10648563;27;20057;-79
2023/03/02 21:42:33;;;;;;;3.47;1.25;;;;;;;0.03;93.42;99389.22;10627158;28;20047;-79
2023/03/02 21:47:37;;;;;;;3.72;1.58;;;;;;;0.02;93.05;99392.97;10587288;28;20043;-80
2023/03/02 21:52:39;;;;;;;2.45;0.88;;;;;;;-0.07;92.89;99394.41;10601610;27;20126;-80
2023/03/02 21:57:42;;;;;;;2.08;1.00;;;;;;;-0.05;92.89;99395.00;10601489;28;20042;-80
2023/03/02 22:02:48;;;;;;;4.43;1.13;;;;;;;-0.03;92.79;99379.38;10616390;28;20040;-81
2023/03/02 22:07:51;;;;;;;2.42;1.05;;;;;;;-0.12;92.89;99381.66;10611028;28;20047;-80
2023/03/02 22:12:57;;;;;;;5.45;1.88;;;;;;;-0.10;93.25;99379.53;10595546;28;20048;-80
2023/03/02 22:17:59;;;;;;;2.92;1.05;;;;;;;-0.06;93.08;99385.25;10572064;28;20425;-81
2023/03/02 22:23:08;;;;;;;3.28;0.90;;;;;;;-0.10;92.86;99379.53;10610965;27;20043;-79
2023/03/02 22:28:26;;;;;;;4.40;1.00;;;;;;;-0.18;93.03;99377.22;10628185;27;20039;-80
2023/03/02 22:33:28;;;;;;;2.58;1.10;;;;;;;-0.28;93.38;99370.84;10634562;27;20040;-79
2023/03/02 22:38:30;;;;;;;4.88;1.02;;;;;;;-0.29;93.91;99377.31;10580333;28;20043;-80
2023/03/02 22:43:33;;;;;;;3.78;1.10;;;;;;;-0.31;94.16;99374.84;10612539;28;20053;-79
2023/03/02 22:48:37;;;;;;;9.20;2.38;;;;;;;-0.24;94.32;99377.38;10613134;28;20043;-81
2023/03/02 22:53:54;;;;;;;4.85;2.17;;;;;;;-0.29;94.34;99371.91;10609920;28;20050;-80
2023/03/02 22:59:23;;;;;;;7.88;2.58;;;;;;;-0.33;94.42;99374.28;10611219;28;20040;-80
2023/03/02 23:04:35;;;;;;;6.78;2.85;;;;;;;-0.34;94.72;99361.84;10600550;28;20047;-79
2023/03/02 23:09:38;;;;;;;3.17;1.55;;;;;;;-0.35;94.17;99379.06;10573838;28;20070;-81
2023/03/02 23:14:48;;;;;;;4.00;1.60;;;;;;;-0.40;94.08;99384.38;10611838;28;20043;-81
2023/03/02 23:19:50;;;;;;;4.72;1.30;;;;;;;-0.44;94.56;99389.41;10612197;28;20039;-80
2023/03/02 23:24:52;;;;;;;2.55;1.55;;;;;;;-0.49;94.67;99383.94;10568577;28;20062;-79
2023/03/02 23:29:55;;;;;;;2.80;1.08;;;;;;;-0.39;94.70;99386.00;10608520;28;20141;-80
2023/03/02 23:34:57;;;;;;;3.42;0.88;;;;;;;-0.32;94.58;99392.91;10606041;28;20035;-79
2023/03/02 23:39:59;;;;;;;2.55;0.93;;;;;;;-0.35;94.26;99398.78;10595351;28;20047;-80
2023/03/02 23:45:01;;;;;;;5.32;1.00;;;;;;;-0.23;93.56;99393.31;10604476;28;20059;-80